createdAt,value
2022-08-23T00:01:33.430Z,72.57
2022-08-23T00:04:07.874Z,72.62
2022-08-23T00:06:36.572Z,72.61
2022-08-23T00:09:06.406Z,72.60
2022-08-23T00:11:39.954Z,72.75
2022-08-23T00:14:12.644Z,72.87
2022-08-23T00:16:42.895Z,72.99
2022-08-23T00:19:15.116Z,73.07
2022-08-23T00:21:44.358Z,73.12
2022-08-23T00:24:15.755Z,73.34
2022-08-23T00:26:53.566Z,73.23
2022-08-23T00:29:24.535Z,73.47
2022-08-23T00:31:54.517Z,73.29
2022-08-23T00:34:22.864Z,73.35
2022-08-23T00:36:52.289Z,73.56
2022-08-23T00:39:22.413Z,73.58
2022-08-23T00:41:51.890Z,73.69
2022-08-23T00:44:44.319Z,73.74
2022-08-23T00:47:33.034Z,73.71
2022-08-23T00:50:24.506Z,73.73
2022-08-23T00:53:04.293Z,73.90
2022-08-23T00:55:33.788Z,74.07
2022-08-23T00:58:02.506Z,73.90
2022-08-23T01:00:32.202Z,74.19
2022-08-23T01:03:03.115Z,74.36
2022-08-23T01:05:42.985Z,74.25
2022-08-23T01:08:11.317Z,74.38
2022-08-23T01:10:44.955Z,74.56
2022-08-23T01:13:20.654Z,74.34
2022-08-23T01:15:55.146Z,74.46
2022-08-23T01:18:29.520Z,74.56
2022-08-23T01:21:05.239Z,74.60
2022-08-23T01:23:45.220Z,74.86
2022-08-23T01:26:19.129Z,74.79
2022-08-23T01:28:50.391Z,74.84
2022-08-23T01:31:19.178Z,74.78
2022-08-23T01:33:51.709Z,74.93
2022-08-23T01:36:20.201Z,74.92
2022-08-23T01:38:50.460Z,74.98
2022-08-23T01:41:19.236Z,75.04
2022-08-23T01:43:47.699Z,74.87
2022-08-23T01:46:19.886Z,75.25
2022-08-23T01:48:50.449Z,75.13
2022-08-23T01:51:22.083Z,75.24
2022-08-23T01:53:52.473Z,75.26
2022-08-23T01:56:38.415Z,75.43
2022-08-23T01:59:08.636Z,75.59
2022-08-23T02:01:38.119Z,75.60
2022-08-23T02:04:07.519Z,75.45
2022-08-23T02:06:36.142Z,75.67
2022-08-23T02:09:17.202Z,75.68
2022-08-23T02:11:46.598Z,75.53
2022-08-23T02:14:20.173Z,75.53
2022-08-23T02:16:56.534Z,75.90
2022-08-23T02:19:31.526Z,76.02
2022-08-23T02:21:59.825Z,75.77
2022-08-23T02:24:31.072Z,76.11
2022-08-23T02:27:04.221Z,76.03
2022-08-23T02:29:38.339Z,76.20
2022-08-23T02:32:09.560Z,76.28
2022-08-23T02:34:38.575Z,76.31
2022-08-23T02:37:07.492Z,76.17
2022-08-23T02:39:38.961Z,76.07
2022-08-23T02:42:08.208Z,76.29
2022-08-23T02:44:40.317Z,76.22
2022-08-23T02:47:09.174Z,76.10
2022-08-23T02:49:38.094Z,76.05
2022-08-23T02:52:07.540Z,76.03
2022-08-23T02:54:37.478Z,76.33
2022-08-23T02:57:06.716Z,76.18
2022-08-23T02:59:35.414Z,76.10
2022-08-23T03:02:03.915Z,76.37
2022-08-23T03:04:32.483Z,76.21
2022-08-23T03:07:00.720Z,76.25
2022-08-23T03:09:29.052Z,76.48
2022-08-23T03:11:58.684Z,76.36
2022-08-23T03:14:27.692Z,76.18
2022-08-23T03:16:58.260Z,76.62
2022-08-23T03:19:26.791Z,76.62
2022-08-23T03:21:55.044Z,76.44
2022-08-23T03:24:24.057Z,76.58
2022-08-23T03:26:52.652Z,76.60
2022-08-23T03:29:22.518Z,76.62
2022-08-23T03:31:51.603Z,76.72
2022-08-23T03:34:22.711Z,76.67
2022-08-23T03:36:51.071Z,76.31
2022-08-23T03:39:19.373Z,76.64
2022-08-23T03:41:47.630Z,76.78
2022-08-23T03:44:16.124Z,76.52
2022-08-23T03:46:45.793Z,76.53
2022-08-23T03:49:14.079Z,76.49
2022-08-23T03:51:42.328Z,76.69
2022-08-23T03:54:10.950Z,76.87
2022-08-23T03:56:51.639Z,76.78
2022-08-23T03:59:19.950Z,76.71
2022-08-23T04:01:49.936Z,76.59
2022-08-23T04:04:18.229Z,76.86
2022-08-23T04:06:47.079Z,76.83
2022-08-23T04:09:17.228Z,76.92
2022-08-23T04:11:45.575Z,76.64
2022-08-23T04:14:13.986Z,76.91
2022-08-23T04:16:43.109Z,76.94
2022-08-23T04:19:15.146Z,76.68
2022-08-23T04:21:48.233Z,76.73
2022-08-23T04:24:17.002Z,76.90
2022-08-23T04:26:45.250Z,77.02
2022-08-23T04:29:20.766Z,76.82
2022-08-23T04:32:02.813Z,76.88
2022-08-23T04:34:35.649Z,76.83
2022-08-23T04:37:04.077Z,76.87
2022-08-23T04:39:58.725Z,76.69
2022-08-23T04:42:26.710Z,76.83
2022-08-23T04:44:55.430Z,76.64
2022-08-23T04:47:23.863Z,76.73
2022-08-23T04:49:53.486Z,76.63
2022-08-23T04:52:22.024Z,76.56
2022-08-23T04:54:50.327Z,76.73
2022-08-23T04:57:18.643Z,76.45
2022-08-23T04:59:46.897Z,76.38
2022-08-23T05:02:15.278Z,76.50
2022-08-23T05:04:44.566Z,76.18
2022-08-23T05:07:15.590Z,76.50
2022-08-23T05:09:43.943Z,76.25
2022-08-23T05:12:12.602Z,76.36
2022-08-23T05:14:40.982Z,76.21
2022-08-23T05:17:16.209Z,75.96
2022-08-23T05:19:47.236Z,76.12
2022-08-23T05:22:17.011Z,75.75
2022-08-23T05:24:45.349Z,75.83
2022-08-23T05:27:13.929Z,75.88
2022-08-23T05:29:42.286Z,75.65
2022-08-23T05:32:10.730Z,75.71
2022-08-23T05:34:39.236Z,75.67
2022-08-23T05:37:07.693Z,75.60
2022-08-23T05:39:37.641Z,75.51
2022-08-23T05:42:07.341Z,75.52
2022-08-23T05:44:36.708Z,75.23
2022-08-23T05:47:10.422Z,75.26
2022-08-23T05:49:39.749Z,75.30
2022-08-23T05:52:12.916Z,75.16
2022-08-23T05:54:42.546Z,75.02
2022-08-23T05:57:11.598Z,75.02
2022-08-23T05:59:41.843Z,74.85
2022-08-23T06:02:10.659Z,74.76
2022-08-23T06:04:39.003Z,74.83
2022-08-23T06:07:07.516Z,74.60
2022-08-23T06:09:35.939Z,74.54
2022-08-23T06:12:06.006Z,74.49
2022-08-23T06:14:34.404Z,74.47
2022-08-23T06:17:02.681Z,74.23
2022-08-23T06:19:31.073Z,74.08
2022-08-23T06:21:59.331Z,74.06
2022-08-23T06:24:27.673Z,74.00
2022-08-23T06:26:55.945Z,73.65
2022-08-23T06:29:25.555Z,73.52
2022-08-23T06:31:54.597Z,73.38
2022-08-23T06:34:25.590Z,73.22
2022-08-23T06:36:56.594Z,73.27
2022-08-23T06:39:27.705Z,72.97
2022-08-23T06:42:01.078Z,72.95
2022-08-23T06:44:32.513Z,72.70
2022-08-23T06:47:00.879Z,72.67
2022-08-23T06:49:29.622Z,72.42
2022-08-23T06:52:01.652Z,72.21
2022-08-23T06:54:33.783Z,72.02
2022-08-23T06:57:03.258Z,71.70
2022-08-23T06:59:32.901Z,71.61
2022-08-23T07:02:04.322Z,71.48
2022-08-23T07:04:35.564Z,71.35
2022-08-23T07:07:07.149Z,71.00
2022-08-23T07:09:39.137Z,70.71
2022-08-23T07:12:08.302Z,70.51
2022-08-23T07:14:39.184Z,70.22
2022-08-23T07:17:07.818Z,69.95
2022-08-23T07:19:37.501Z,69.69
2022-08-23T07:22:07.547Z,69.33
2022-08-23T07:24:35.859Z,69.08
2022-08-23T07:27:08.650Z,69.04
2022-08-23T07:29:40.675Z,68.76
2022-08-23T07:32:10.312Z,68.35
2022-08-23T07:34:38.893Z,68.35
2022-08-23T07:37:15.226Z,68.16
2022-08-23T07:39:44.657Z,68.19
2022-08-23T07:42:23.817Z,67.81
2022-08-23T07:44:53.885Z,67.70
2022-08-23T07:47:22.580Z,67.36
2022-08-23T07:49:51.086Z,67.25
2022-08-23T07:52:19.385Z,67.00
2022-08-23T07:54:49.378Z,67.01
2022-08-23T07:57:19.073Z,66.95
2022-08-23T07:59:48.575Z,66.78
2022-08-23T08:02:18.471Z,66.66
2022-08-23T08:04:46.803Z,66.47
2022-08-23T08:07:20.770Z,66.31
2022-08-23T08:09:49.786Z,66.19
2022-08-23T08:12:18.296Z,66.03
2022-08-23T08:14:48.213Z,65.85
2022-08-23T08:17:19.081Z,65.49
2022-08-23T08:19:47.710Z,65.16
2022-08-23T08:22:16.033Z,65.02
2022-08-23T08:24:44.656Z,64.63
2022-08-23T08:27:13.197Z,64.14
2022-08-23T08:29:44.937Z,63.25
2022-08-23T08:32:14.160Z,62.61
2022-08-23T08:34:44.356Z,62.02
2022-08-23T08:37:12.733Z,61.89
2022-08-23T08:39:45.866Z,61.58
2022-08-23T08:42:47.246Z,61.21
2022-08-23T08:45:23.555Z,60.82
2022-08-23T08:48:01.671Z,60.71
2022-08-23T08:50:37.804Z,60.47
2022-08-23T08:53:10.947Z,59.54
2022-08-23T08:55:48.603Z,60.25
2022-08-23T08:58:25.978Z,59.63
2022-08-23T09:00:56.485Z,59.44
2022-08-23T09:03:30.016Z,58.85
2022-08-23T09:06:14.079Z,58.36
2022-08-23T09:09:02.219Z,58.43
2022-08-23T09:11:46.770Z,57.99
2022-08-23T09:14:52.989Z,57.46
2022-08-23T09:17:29.356Z,57.47
2022-08-23T09:20:01.353Z,57.29
2022-08-23T09:22:38.830Z,57.00
2022-08-23T09:25:11.229Z,56.33
2022-08-23T09:27:41.260Z,56.27
2022-08-23T09:30:13.140Z,56.05
2022-08-23T09:32:45.461Z,55.97
2022-08-23T09:35:18.885Z,55.36
2022-08-23T09:38:00.234Z,55.12
2022-08-23T09:40:38.959Z,55.39
2022-08-23T09:43:14.528Z,55.25
2022-08-23T09:45:58.689Z,55.08
2022-08-23T09:48:41.047Z,54.68
2022-08-23T09:51:18.475Z,54.78
2022-08-23T09:54:04.924Z,54.64
2022-08-23T09:56:39.665Z,54.33
2022-08-23T09:59:33.430Z,53.64
2022-08-23T10:02:03.090Z,53.73
2022-08-23T10:04:43.934Z,53.89
2022-08-23T10:07:27.955Z,53.42
2022-08-23T10:10:23.564Z,53.01
2022-08-23T10:12:54.157Z,52.96
2022-08-23T10:15:37.440Z,52.85
2022-08-23T10:18:16.969Z,52.75
2022-08-23T10:20:57.780Z,52.36
2022-08-23T10:23:42.948Z,51.62
2022-08-23T10:26:21.871Z,51.51
2022-08-23T10:29:31.597Z,51.50
2022-08-23T10:32:15.909Z,51.49
2022-08-23T10:34:59.619Z,51.01
2022-08-23T10:37:48.801Z,50.82
2022-08-23T10:40:25.652Z,50.97
2022-08-23T10:43:14.210Z,50.60
2022-08-23T10:45:47.043Z,50.48
2022-08-23T10:48:28.676Z,50.49
2022-08-23T10:51:00.415Z,50.20
2022-08-23T10:53:45.993Z,50.26
2022-08-23T10:56:19.229Z,49.99
2022-08-23T10:58:54.299Z,49.75
2022-08-23T11:01:26.786Z,49.95
2022-08-23T11:04:05.521Z,49.59
2022-08-23T11:06:54.229Z,48.96
2022-08-23T11:09:54.733Z,49.15
2022-08-23T11:12:35.778Z,49.29
2022-08-23T11:15:19.445Z,48.80
2022-08-23T11:18:05.266Z,48.52
2022-08-23T11:21:05.247Z,48.63
2022-08-23T11:23:51.635Z,49.13
2022-08-23T11:27:06.744Z,48.59
2022-08-23T11:29:38.649Z,48.57
2022-08-23T11:32:41.751Z,46.17
2022-08-23T11:35:45.499Z,48.14
2022-08-23T11:38:15.226Z,48.19
2022-08-23T11:41:23.788Z,47.66
2022-08-23T11:44:24.234Z,47.90
2022-08-23T11:47:04.535Z,47.74
2022-08-23T11:50:07.939Z,46.38
2022-08-23T11:53:04.976Z,47.33
2022-08-23T11:56:02.249Z,46.98
2022-08-23T11:58:52.765Z,46.92
2022-08-23T12:01:32.453Z,47.12
2022-08-23T12:04:10.537Z,46.95
2022-08-23T12:06:50.542Z,46.87
2022-08-23T12:09:54.486Z,46.64
2022-08-23T12:12:39.420Z,46.77
2022-08-23T12:15:14.279Z,46.96
2022-08-23T12:18:19.282Z,46.61
2022-08-23T12:20:51.720Z,47.01
2022-08-23T12:23:22.931Z,46.98
2022-08-23T12:26:07.088Z,46.80
2022-08-23T12:28:43.465Z,46.77
2022-08-23T12:31:29.827Z,46.80
2022-08-23T12:34:20.660Z,46.25
2022-08-23T12:37:01.823Z,46.46
2022-08-23T12:39:37.158Z,46.68
2022-08-23T12:42:15.562Z,46.70
2022-08-23T12:44:47.121Z,46.59
2022-08-23T12:47:20.724Z,46.23
2022-08-23T12:50:00.368Z,45.85
2022-08-23T12:52:32.178Z,46.47
2022-08-23T12:55:01.971Z,46.19
2022-08-23T12:57:38.436Z,46.03
2022-08-23T13:00:23.961Z,46.15
2022-08-23T13:02:58.807Z,46.23
2022-08-23T13:05:45.934Z,45.98
2022-08-23T13:08:19.702Z,46.07
2022-08-23T13:10:57.889Z,46.48
2022-08-23T13:13:28.979Z,46.26
2022-08-23T13:16:00.429Z,45.90
2022-08-23T13:18:45.871Z,43.19
2022-08-23T13:21:38.256Z,45.65
2022-08-23T13:24:38.020Z,45.50
2022-08-23T13:27:24.682Z,45.34
2022-08-23T13:29:57.223Z,45.50
2022-08-23T13:32:36.728Z,45.71
2022-08-23T13:35:30.938Z,44.93
2022-08-23T13:38:02.759Z,45.73
2022-08-23T13:40:39.804Z,45.38
2022-08-23T13:43:15.214Z,45.23
2022-08-23T13:45:51.468Z,45.48
2022-08-23T13:48:23.642Z,45.57
2022-08-23T13:50:53.032Z,45.17
2022-08-23T13:53:22.415Z,45.25
2022-08-23T13:55:55.544Z,44.00
2022-08-23T13:58:32.687Z,44.16
2022-08-23T14:01:03.442Z,44.66
2022-08-23T14:03:32.836Z,44.94
2022-08-23T14:06:01.146Z,44.56
2022-08-23T14:08:29.455Z,44.69
2022-08-23T14:10:57.924Z,44.42
2022-08-23T14:13:31.244Z,44.55
2022-08-23T14:21:43.792Z,45.00
2022-08-23T14:24:12.114Z,45.57
2022-08-23T14:26:51.744Z,45.68
2022-08-23T14:29:23.133Z,45.54
2022-08-23T14:31:52.202Z,45.53
2022-08-23T14:34:20.627Z,45.45
2022-08-23T14:39:37.886Z,45.97
2022-08-23T14:42:07.059Z,45.74
2022-08-23T14:44:37.093Z,46.16
2022-08-23T14:47:06.615Z,46.01
2022-08-23T14:49:36.065Z,46.31
2022-08-23T14:52:05.253Z,46.17
2022-08-23T14:54:34.601Z,46.34
2022-08-23T14:57:02.928Z,46.24
2022-08-23T14:59:31.399Z,46.07
2022-08-23T15:02:01.521Z,46.30
2022-08-23T15:04:34.144Z,46.34
2022-08-23T15:07:19.726Z,46.48
2022-08-23T15:09:49.151Z,46.50
2022-08-23T15:15:12.674Z,46.19
2022-08-23T15:17:48.853Z,45.33
2022-08-23T15:20:17.198Z,46.48
2022-08-23T15:22:55.256Z,46.40
2022-08-23T15:25:26.701Z,46.50
2022-08-23T15:27:55.146Z,46.76
2022-08-23T15:30:25.656Z,46.50
2022-08-23T15:32:56.740Z,46.78
2022-08-23T15:35:27.131Z,46.96
2022-08-23T15:37:57.278Z,46.70
2022-08-23T15:40:26.749Z,46.93
2022-08-23T15:42:55.388Z,46.82
2022-08-23T15:45:23.809Z,46.88
2022-08-23T15:47:58.845Z,46.80
2022-08-23T15:50:31.047Z,46.90
2022-08-23T15:52:59.945Z,46.89
2022-08-23T15:55:33.152Z,47.00
2022-08-23T15:58:01.787Z,46.97
2022-08-23T16:00:30.317Z,46.98
2022-08-23T16:03:18.308Z,46.82
2022-08-23T16:05:50.843Z,47.20
2022-08-23T16:08:25.663Z,47.06
2022-08-23T16:10:54.781Z,46.93
2022-08-23T16:13:24.249Z,47.24
2022-08-23T16:15:52.737Z,47.31
2022-08-23T16:18:22.385Z,47.22
2022-08-23T16:20:54.209Z,47.12
2022-08-23T16:23:23.439Z,47.04
2022-08-23T16:25:51.892Z,46.97
2022-08-23T16:28:20.230Z,47.01
2022-08-23T16:30:48.567Z,47.27
2022-08-23T16:33:16.910Z,47.18
2022-08-23T16:35:46.547Z,47.16
2022-08-23T16:38:15.050Z,47.21
2022-08-23T16:40:43.369Z,47.20
2022-08-23T16:43:11.655Z,47.12
2022-08-23T16:45:40.196Z,47.28
2022-08-23T16:48:12.943Z,47.17
2022-08-23T16:50:42.882Z,47.34
2022-08-23T16:53:12.590Z,47.52
2022-08-23T16:55:41.232Z,47.50
2022-08-23T16:58:09.572Z,47.55
2022-08-23T17:00:39.037Z,47.66
2022-08-23T17:03:08.251Z,47.73
2022-08-23T17:05:37.648Z,47.73
2022-08-23T17:08:07.408Z,47.70
2022-08-23T17:10:37.678Z,47.77
2022-08-23T17:13:06.254Z,48.00
2022-08-23T17:15:37.376Z,47.94
2022-08-23T17:18:06.509Z,48.13
2022-08-23T17:20:39.262Z,48.18
2022-08-23T17:23:08.452Z,48.26
2022-08-23T17:25:41.621Z,48.31
2022-08-23T17:28:09.901Z,48.44
2022-08-23T17:30:38.278Z,48.52
2022-08-23T17:33:06.761Z,48.62
2022-08-23T17:35:36.847Z,48.89
2022-08-23T17:38:06.872Z,48.96
2022-08-23T17:40:40.004Z,49.20
2022-08-23T17:43:09.514Z,49.15
2022-08-23T17:45:44.875Z,49.30
2022-08-23T17:48:13.577Z,49.44
2022-08-23T17:50:43.584Z,49.61
2022-08-23T17:53:14.354Z,49.54
2022-08-23T17:55:44.550Z,49.71
2022-08-23T17:58:14.209Z,49.73
2022-08-23T18:00:42.638Z,49.84
2022-08-23T18:03:10.911Z,49.89
2022-08-23T18:05:42.941Z,49.93
2022-08-23T18:08:11.513Z,50.09
2022-08-23T18:10:40.250Z,50.36
2022-08-23T18:13:10.188Z,50.32
2022-08-23T18:15:38.630Z,50.38
2022-08-23T18:18:07.386Z,50.44
2022-08-23T18:20:35.710Z,50.62
2022-08-23T18:23:04.843Z,50.73
2022-08-23T18:25:33.124Z,50.72
2022-08-23T18:28:06.685Z,50.86
2022-08-23T18:30:38.530Z,51.08
2022-08-23T18:33:09.264Z,51.21
2022-08-23T18:35:41.540Z,51.27
2022-08-23T18:38:12.476Z,51.40
2022-08-23T18:40:46.195Z,51.10
2022-08-23T18:43:17.857Z,51.38
2022-08-23T18:45:51.041Z,51.73
2022-08-23T18:48:20.371Z,51.86
2022-08-23T18:50:50.521Z,52.15
2022-08-23T18:53:20.634Z,52.23
2022-08-23T18:55:50.024Z,52.14
2022-08-23T18:58:19.108Z,52.20
2022-08-23T19:00:51.449Z,52.45
2022-08-23T19:03:20.456Z,52.54
2022-08-23T19:05:49.263Z,52.65
2022-08-23T19:08:19.366Z,52.88
2022-08-23T19:10:48.153Z,52.77
2022-08-23T19:13:16.747Z,52.92
2022-08-23T19:15:45.044Z,53.03
2022-08-23T19:18:14.708Z,52.94
2022-08-23T19:20:43.439Z,53.12
2022-08-23T19:23:11.713Z,53.19
2022-08-23T19:25:42.194Z,53.15
2022-08-23T19:28:10.494Z,53.15
2022-08-23T19:30:39.249Z,53.46
2022-08-23T19:33:10.512Z,53.66
2022-08-23T19:35:40.477Z,53.60
2022-08-23T19:38:08.895Z,53.88
2022-08-23T19:40:37.606Z,53.73
2022-08-23T19:43:05.926Z,53.74
2022-08-23T19:45:34.500Z,54.14
2022-08-23T19:48:03.084Z,54.15
2022-08-23T19:50:31.462Z,54.10
2022-08-23T19:53:01.263Z,54.05
2022-08-23T19:55:32.490Z,54.44
2022-08-23T19:58:01.352Z,54.23
2022-08-23T20:00:31.514Z,54.38
2022-08-23T20:03:00.013Z,54.48
2022-08-23T20:05:28.403Z,54.64
2022-08-23T20:07:56.858Z,54.76
2022-08-23T20:10:26.657Z,54.80
2022-08-23T20:12:55.285Z,54.94
2022-08-23T20:15:23.609Z,54.88
2022-08-23T20:17:52.316Z,55.23
2022-08-23T20:20:20.922Z,54.94
2022-08-23T20:23:06.455Z,55.29
2022-08-23T20:25:36.646Z,55.28
2022-08-23T20:28:08.268Z,55.36
2022-08-23T20:30:37.546Z,55.58
2022-08-23T20:33:06.020Z,55.38
2022-08-23T20:35:34.330Z,55.63
2022-08-23T20:38:04.272Z,55.76
2022-08-23T20:40:33.077Z,55.61
2022-08-23T20:43:02.962Z,56.02
2022-08-23T20:45:32.750Z,55.67
2022-08-23T20:48:01.440Z,56.00
2022-08-23T20:50:29.765Z,55.81
2022-08-23T20:52:58.158Z,55.91
2022-08-23T20:55:26.513Z,56.10
2022-08-23T20:57:54.810Z,56.39
2022-08-23T21:00:24.527Z,56.23
2022-08-23T21:02:52.829Z,56.29
2022-08-23T21:05:21.104Z,56.43
2022-08-23T21:07:49.465Z,56.39
2022-08-23T21:10:18.001Z,56.44
2022-08-23T21:12:46.235Z,56.46
2022-08-23T21:15:14.492Z,56.55
2022-08-23T21:17:46.680Z,56.55
2022-08-23T21:20:16.156Z,56.63
2022-08-23T21:22:44.449Z,56.66
2022-08-23T21:25:12.901Z,56.85
2022-08-23T21:27:41.349Z,56.67
2022-08-23T21:30:11.706Z,56.88
2022-08-23T21:32:39.958Z,56.73
2022-08-23T21:35:11.741Z,56.97
2022-08-23T21:37:40.051Z,57.18
2022-08-23T21:40:09.813Z,57.09
2022-08-23T21:42:38.459Z,57.05
2022-08-23T21:45:09.161Z,57.01
2022-08-23T21:47:38.163Z,57.52
2022-08-23T21:50:08.226Z,57.14
2022-08-23T21:52:37.938Z,57.48
2022-08-23T21:55:08.014Z,57.40
2022-08-23T21:57:36.375Z,57.46
2022-08-23T22:00:07.862Z,57.58
2022-08-23T22:02:36.228Z,57.66
2022-08-23T22:05:04.980Z,57.71
2022-08-23T22:07:34.975Z,58.00
2022-08-23T22:10:08.057Z,57.93
2022-08-23T22:12:36.528Z,58.08
2022-08-23T22:15:06.194Z,58.16
2022-08-23T22:17:34.434Z,58.10
2022-08-23T22:20:04.735Z,58.59
2022-08-23T22:22:33.288Z,58.22
2022-08-23T22:25:02.574Z,58.79
2022-08-23T22:27:32.730Z,58.54
2022-08-23T22:30:01.195Z,58.80
2022-08-23T22:32:29.542Z,58.77
2022-08-23T22:34:58.229Z,59.24
2022-08-23T22:37:26.518Z,59.37
2022-08-23T22:39:57.183Z,59.43
2022-08-23T22:42:25.531Z,59.45
2022-08-23T22:44:58.442Z,59.92
2022-08-23T22:47:26.852Z,59.90
2022-08-23T22:49:55.133Z,60.00
2022-08-23T22:52:23.478Z,60.49
2022-08-23T22:54:51.937Z,60.50
2022-08-23T22:57:20.248Z,60.75
2022-08-23T22:59:48.544Z,60.87
2022-08-23T23:02:20.262Z,60.83
2022-08-23T23:04:49.110Z,61.03
2022-08-23T23:07:38.166Z,61.19
2022-08-23T23:10:07.652Z,61.19
2022-08-23T23:12:35.973Z,61.53
2022-08-23T23:15:04.992Z,61.50
2022-08-23T23:17:34.640Z,61.79
2022-08-23T23:20:20.804Z,61.78
2022-08-23T23:22:49.385Z,62.27
2022-08-23T23:25:17.723Z,62.52
2022-08-23T23:27:46.111Z,62.54
2022-08-23T23:30:15.415Z,62.92
2022-08-23T23:32:45.650Z,62.97
2022-08-23T23:35:14.622Z,63.08
2022-08-23T23:37:45.571Z,63.31
2022-08-23T23:40:17.648Z,63.41
2022-08-23T23:42:46.000Z,63.69
2022-08-23T23:45:15.772Z,63.81
2022-08-23T23:47:46.283Z,64.10
2022-08-23T23:50:15.010Z,64.18
2022-08-23T23:52:43.866Z,64.26
2022-08-23T23:55:17.035Z,64.64
2022-08-23T23:57:46.106Z,64.40
